Time;durP1;ratioP1;P1;durP2;ratioP2;P2;SDS_P1;SDS_P2;PMS_P1;PMS_P2;Temp;Humidity;BMP_temperature;BMP_pressure;BME280_temperature;BME280_humidity;BME280_pressure;Samples;Min_cycle;Max_cycle;Signal;HPM_P1;HPM_P2
2022/06/13 00:03:32;;;;;;;;;;;22.30;55.60;;;;;;20898838;28;20398;-79
2022/06/13 00:13:33;;;;;;;;;;;22.30;55.60;;;;;;20897616;28;19920;-79
2022/06/13 00:23:35;;;;;;;;;;;22.30;55.80;;;;;;20896585;28;19939;-78
2022/06/13 00:33:35;;;;;;;;;;;22.20;55.70;;;;;;20897026;28;19942;-78
2022/06/13 00:43:36;;;;;;;;;;;22.20;55.70;;;;;;20913870;28;19979;-79
2022/06/13 00:53:37;;;;;;;;;;;22.10;55.70;;;;;;20878313;28;19923;-79
2022/06/13 01:03:38;;;;;;;;;;;22.20;55.90;;;;;;20878395;28;20066;-81
2022/06/13 01:13:53;;;;;;;;;;;22.20;55.90;;;;;;20892863;28;19921;-80
2022/06/13 01:23:54;;;;;;;;;;;22.20;56.00;;;;;;20909046;28;20375;-79
2022/06/13 01:34:05;;;;;;;;;;;22.10;56.00;;;;;;20910657;28;20066;-80
2022/06/13 01:44:10;;;;;;;;;;;22.10;56.00;;;;;;20893084;28;20004;-79
2022/06/13 01:54:16;;;;;;;;;;;22.10;56.10;;;;;;20891575;28;20036;-78
2022/06/13 02:04:21;;;;;;;;;;;22.10;56.10;;;;;;20894374;28;19963;-79
2022/06/13 02:14:22;;;;;;;;;;;22.00;56.00;;;;;;20908317;28;19917;-79
2022/06/13 02:24:23;;;;;;;;;;;22.00;56.00;;;;;;20923683;28;20369;-79
2022/06/13 02:34:32;;;;;;;;;;;22.00;56.00;;;;;;20924115;28;20521;-78
2022/06/13 02:44:34;;;;;;;;;;;22.00;56.00;;;;;;20879690;28;20416;-78
2022/06/13 02:54:36;;;;;;;;;;;22.00;56.00;;;;;;20904212;28;20263;-79
2022/06/13 03:04:38;;;;;;;;;;;22.00;56.10;;;;;;20919510;28;20426;-79
2022/06/13 03:14:40;;;;;;;;;;;21.90;56.10;;;;;;20901443;28;19917;-77
2022/06/13 03:24:59;;;;;;;;;;;21.90;56.10;;;;;;20901281;28;19917;-77
2022/06/13 03:35:00;;;;;;;;;;;21.90;56.10;;;;;;20900077;28;19964;-78
2022/06/13 03:45:06;;;;;;;;;;;21.90;56.10;;;;;;20899550;28;19936;-78
2022/06/13 03:55:15;;;;;;;;;;;21.90;56.10;;;;;;20912589;28;19917;-77
2022/06/13 04:05:19;;;;;;;;;;;21.90;56.20;;;;;;20875064;28;19923;-77
2022/06/13 04:15:39;;;;;;;;;;;21.80;56.10;;;;;;20911754;28;19971;-76
2022/06/13 04:25:51;;;;;;;;;;;21.80;56.10;;;;;;20899510;28;19921;-77
2022/06/13 04:35:52;;;;;;;;;;;21.80;56.20;;;;;;20865420;28;20349;-76
2022/06/13 04:46:12;;;;;;;;;;;21.70;56.10;;;;;;20909142;28;19959;-75
2022/06/13 04:56:12;;;;;;;;;;;21.80;56.10;;;;;;20888069;28;19920;-76
2022/06/13 05:06:31;;;;;;;;;;;21.70;56.10;;;;;;20886993;28;19947;-76
2022/06/13 05:16:40;;;;;;;;;;;21.70;56.10;;;;;;20906204;28;19923;-87
2022/06/13 05:26:41;;;;;;;;;;;21.80;56.10;;;;;;20888506;28;19917;-74
2022/06/13 05:36:41;;;;;;;;;;;21.70;56.00;;;;;;20886550;28;19916;-74
2022/06/13 05:46:42;;;;;;;;;;;21.70;56.00;;;;;;20918768;28;19924;-73
2022/06/13 05:56:42;;;;;;;;;;;21.70;56.70;;;;;;20901542;28;19916;-73
2022/06/13 06:06:43;;;;;;;;;;;21.70;56.10;;;;;;20883201;28;19920;-73
2022/06/13 06:16:44;;;;;;;;;;;21.70;56.00;;;;;;20881911;28;20005;-73
2022/06/13 06:26:44;;;;;;;;;;;21.70;56.00;;;;;;20887526;28;19920;-75
2022/06/13 06:36:45;;;;;;;;;;;21.70;56.00;;;;;;20897874;28;19916;-73
2022/06/13 06:46:45;;;;;;;;;;;21.70;56.00;;;;;;20894887;28;20039;-73
2022/06/13 07:07:05;;;;;;;;;;;21.70;55.80;;;;;;20900338;28;20371;-73
2022/06/13 07:17:06;;;;;;;;;;;21.70;55.60;;;;;;20887294;28;19927;-74
2022/06/13 07:27:06;;;;;;;;;;;21.70;55.50;;;;;;20879490;28;19917;-73
2022/06/13 07:37:08;;;;;;;;;;;21.70;55.30;;;;;;21055818;22;20379;-72
2022/06/13 07:47:09;;;;;;;;;;;21.70;55.20;;;;;;20670868;28;20019;-72
2022/06/13 07:57:09;;;;;;;;;;;21.70;55.10;;;;;;20624690;28;19922;-72
2022/06/13 08:07:11;;;;;;;;;;;21.70;55.00;;;;;;20654805;28;20033;-72
2022/06/13 08:17:12;;;;;;;;;;;21.70;54.90;;;;;;20637205;28;19928;-73
2022/06/13 08:27:12;;;;;;;;;;;21.70;54.70;;;;;;20628998;28;19917;-73
2022/06/13 08:37:13;;;;;;;;;;;21.70;54.60;;;;;;20663763;28;19928;-73
2022/06/13 08:47:20;;;;;;;;;;;21.70;54.60;;;;;;20625853;28;19914;-71
2022/06/13 08:57:21;;;;;;;;;;;21.70;54.50;;;;;;20620720;28;20020;-72
2022/06/13 09:07:26;;;;;;;;;;;21.70;54.50;;;;;;20638336;28;19917;-72
2022/06/13 09:17:27;;;;;;;;;;;21.70;54.40;;;;;;20653365;28;20372;-74
2022/06/13 09:27:33;;;;;;;;;;;21.70;54.30;;;;;;20620402;28;20039;-74
2022/06/13 09:37:53;;;;;;;;;;;21.70;54.30;;;;;;20663476;28;20072;-73
2022/06/13 09:48:00;;;;;;;;;;;21.70;54.20;;;;;;20647140;28;20137;-73
2022/06/13 09:58:14;;;;;;;;;;;21.70;54.20;;;;;;20617987;28;20291;-73
2022/06/13 10:08:17;;;;;;;;;;;21.70;54.70;;;;;;20630855;28;19994;-72
2022/06/13 10:18:30;;;;;;;;;;;21.60;54.20;;;;;;20639840;28;20408;-72
2022/06/13 10:28:43;;;;;;;;;;;21.60;54.10;;;;;;20632644;28;19917;-72
2022/06/13 10:38:55;;;;;;;;;;;21.60;54.30;;;;;;20694739;28;20349;-72
2022/06/13 10:49:02;;;;;;;;;;;21.50;54.30;;;;;;20649176;28;19918;-73
2022/06/13 10:59:02;;;;;;;;;;;21.50;54.60;;;;;;20637165;28;19935;-74
2022/06/13 11:09:04;;;;;;;;;;;21.50;54.80;;;;;;20659530;28;20364;-77
2022/06/13 11:29:28;;;;;;;;;;;21.40;54.70;;;;;;20667459;28;19926;-72
2022/06/13 11:39:33;;;;;;;;;;;21.40;54.70;;;;;;20681648;28;20624;-73
2022/06/13 11:49:34;;;;;;;;;;;21.40;54.70;;;;;;20653860;28;19922;-74
2022/06/13 11:59:36;;;;;;;;;;;21.40;54.70;;;;;;20634656;28;20281;-75
2022/06/13 12:09:37;;;;;;;;;;;21.40;54.70;;;;;;20678764;28;19968;-75
2022/06/13 12:19:40;;;;;;;;;;;21.40;54.70;;;;;;20649239;28;20342;-76
2022/06/13 12:29:47;;;;;;;;;;;21.40;54.30;;;;;;20650143;28;19926;-75
2022/06/13 12:39:57;;;;;;;;;;;21.40;54.10;;;;;;20646616;28;19920;-75
2022/06/13 12:50:16;;;;;;;;;;;21.30;53.70;;;;;;20628305;28;19918;-75
2022/06/13 13:00:21;;;;;;;;;;;21.40;53.50;;;;;;20624913;28;19989;-76
2022/06/13 13:10:31;;;;;;;;;;;21.30;53.40;;;;;;20653309;28;19926;-76
2022/06/13 13:20:50;;;;;;;;;;;21.30;53.20;;;;;;20657971;28;19922;-77
2022/06/13 13:30:53;;;;;;;;;;;21.40;53.30;;;;;;20651701;28;20284;-75
2022/06/13 13:41:01;;;;;;;;;;;21.40;52.90;;;;;;20655943;28;19914;-75
2022/06/13 13:51:05;;;;;;;;;;;21.40;52.40;;;;;;20633199;28;19922;-77
2022/06/13 14:01:12;;;;;;;;;;;21.40;52.30;;;;;;20641388;28;19949;-74
2022/06/13 14:11:14;;;;;;;;;;;21.40;52.40;;;;;;20665605;28;19925;-74
2022/06/13 14:21:21;;;;;;;;;;;21.30;52.50;;;;;;20668599;28;19918;-74
2022/06/13 14:31:22;;;;;;;;;;;21.40;52.70;;;;;;20648278;28;19926;-74
2022/06/13 14:41:28;;;;;;;;;;;21.30;52.80;;;;;;20691274;28;19925;-75
2022/06/13 14:51:30;;;;;;;;;;;21.30;52.80;;;;;;20645838;28;20399;-78
2022/06/13 15:01:31;;;;;;;;;;;21.40;53.10;;;;;;20643006;28;20387;-73
2022/06/13 15:11:32;;;;;;;;;;;21.60;52.20;;;;;;20619999;28;19929;-73
2022/06/13 15:21:34;;;;;;;;;;;21.60;52.00;;;;;;20625544;28;19926;-76
2022/06/13 15:31:35;;;;;;;;;;;21.60;51.70;;;;;;20629699;28;19948;-77
2022/06/13 15:41:39;;;;;;;;;;;21.50;51.40;;;;;;20672329;28;19914;-75
2022/06/13 15:51:54;;;;;;;;;;;21.50;51.30;;;;;;20606609;28;19928;-74
2022/06/13 16:01:55;;;;;;;;;;;21.50;51.30;;;;;;20645425;28;19921;-74
2022/06/13 16:12:04;;;;;;;;;;;21.50;51.30;;;;;;20674671;28;20033;-75
2022/06/13 16:22:06;;;;;;;;;;;21.60;51.10;;;;;;20662265;28;20658;-76
2022/06/13 16:32:07;;;;;;;;;;;21.60;50.90;;;;;;20641999;28;20403;-75
2022/06/13 16:42:16;;;;;;;;;;;21.60;50.80;;;;;;20627455;28;19914;-75
2022/06/13 16:52:18;;;;;;;;;;;21.70;50.70;;;;;;20636658;28;19933;-76
2022/06/13 17:02:19;;;;;;;;;;;21.70;50.70;;;;;;20635658;28;19928;-76
2022/06/13 17:12:22;;;;;;;;;;;21.70;50.60;;;;;;20649505;28;20359;-84
2022/06/13 17:22:23;;;;;;;;;;;21.80;50.50;;;;;;20662921;28;19918;-82
2022/06/13 17:32:23;;;;;;;;;;;21.80;50.20;;;;;;20637112;28;20354;-81
2022/06/13 17:42:25;;;;;;;;;;;21.80;50.00;;;;;;20633052;28;19921;-80
2022/06/13 17:52:25;;;;;;;;;;;21.90;50.00;;;;;;20645117;28;19922;-81
2022/06/13 18:02:26;;;;;;;;;;;21.80;50.00;;;;;;20646839;28;20296;-80
2022/06/13 18:12:26;;;;;;;;;;;21.70;50.00;;;;;;20685378;28;19917;-80
2022/06/13 18:22:27;;;;;;;;;;;21.80;50.10;;;;;;20676554;28;20264;-80
2022/06/13 18:32:27;;;;;;;;;;;21.80;50.20;;;;;;20685781;28;20326;-73
2022/06/13 18:42:28;;;;;;;;;;;21.70;50.20;;;;;;20655613;28;19920;-73
2022/06/13 18:52:29;;;;;;;;;;;21.60;50.30;;;;;;20643989;28;20387;-73
2022/06/13 19:02:31;;;;;;;;;;;21.50;50.40;;;;;;20627922;28;19925;-73
2022/06/13 19:12:32;;;;;;;;;;;21.50;50.50;;;;;;20640470;28;19985;-73
2022/06/13 19:22:33;;;;;;;;;;;21.50;50.80;;;;;;20641331;28;19922;-73
2022/06/13 19:32:34;;;;;;;;;;;21.50;51.10;;;;;;20650206;28;20020;-74
2022/06/13 19:42:35;;;;;;;;;;;21.40;51.30;;;;;;20628519;28;19965;-74
2022/06/13 20:02:55;;;;;;;;;;;21.30;51.80;;;;;;20623897;28;19921;-72
2022/06/13 20:12:56;;;;;;;;;;;21.30;52.10;;;;;;20651274;28;19924;-73
2022/06/13 20:22:56;;;;;;;;;;;21.30;52.30;;;;;;20671127;28;20391;-73
2022/06/13 20:32:57;;;;;;;;;;;21.20;52.40;;;;;;20671736;28;19948;-73
2022/06/13 20:42:58;;;;;;;;;;;21.20;52.60;;;;;;20608443;28;20008;-73
2022/06/13 20:52:59;;;;;;;;;;;21.20;52.70;;;;;;20609691;28;19922;-73
2022/06/13 21:03:01;;;;;;;;;;;21.10;52.80;;;;;;20617552;28;19922;-73
2022/06/13 21:13:03;;;;;;;;;;;21.10;52.90;;;;;;20629640;28;19921;-73
2022/06/13 21:23:04;;;;;;;;;;;21.10;53.00;;;;;;20629635;28;19922;-73
2022/06/13 21:33:04;;;;;;;;;;;21.10;53.10;;;;;;20635170;28;19921;-73
2022/06/13 21:43:05;;;;;;;;;;;21.10;53.10;;;;;;20606833;28;19921;-73
2022/06/13 21:53:05;;;;;;;;;;;21.10;53.20;;;;;;20640687;28;19945;-73
2022/06/13 22:03:06;;;;;;;;;;;21.00;53.20;;;;;;20599345;28;20376;-73
2022/06/13 22:13:06;;;;;;;;;;;21.00;53.30;;;;;;20611401;28;20020;-73
2022/06/13 22:23:07;;;;;;;;;;;21.00;53.30;;;;;;20641463;28;19997;-73
2022/06/13 22:33:08;;;;;;;;;;;21.00;53.40;;;;;;20664302;28;19921;-73
2022/06/13 22:43:08;;;;;;;;;;;21.00;53.50;;;;;;20634223;28;19918;-73
2022/06/13 22:53:11;;;;;;;;;;;21.00;53.50;;;;;;20653773;28;22714;-73
2022/06/13 23:03:12;;;;;;;;;;;21.00;53.60;;;;;;20629876;28;19914;-73
2022/06/13 23:13:12;;;;;;;;;;;20.90;53.50;;;;;;20661094;28;19933;-73
2022/06/13 23:23:13;;;;;;;;;;;20.90;53.60;;;;;;20611652;28;19918;-73
2022/06/13 23:33:14;;;;;;;;;;;20.80;53.50;;;;;;20629767;28;20280;-74
2022/06/13 23:43:14;;;;;;;;;;;20.90;53.60;;;;;;20635925;28;19948;-73
2022/06/13 23:53:16;;;;;;;;;;;20.80;53.60;;;;;;20608432;28;20372;-73
